Hanoi, Vietnam
Current Conditions -  °F | °C
As of 4:30 AM on Tuesday 23 Dec 2014 (Local Time) from VVNB Reporting Station
Haze Haze  
Wind Chill: 52°   Ceiling: Unl
Heat Index: 52°   Visibility: 2.1mi
Dew Point: 46°   Wind: 5mph
Humidity: 82%   Direction: 60°ENE
Pressure: 30.09"   Gusts: NA
Location:  21.02°N, 105.85°E
Report Text: VVNB 222130Z 06004KT 3500 BR NSC 11/08 Q1019 NOSIG
Loading
Personal Weather Stations






























Interactive Weather Map New forecast layout! Learn more

10-Day Weather Forecast

Advertisements
Track Severe Weather on mobile